RYR73QL EPMO-EGGP
Flight info
| Callsign | RYR73QL |
|---|---|
| Flight time | 2h 30m |
| Altitude | 38000 |
| Route | OLILA L621 GRUDA L23 HAM M170 ELSOB DCT MIMVA DCT OTBED Y70 VEGUS |
| Aircraft | B38M/M-SDE1FGHILORVWXY/HB1 |
Departure
| Time | 2026-04-15 14:20 |
|---|---|
| Airport | Warsaw Modlin Airport (EPMO) |
Arrival
| Time | 2026-04-15 16:51 |
|---|---|
| Airport | Liverpool John Lennon Airport (EGGP) |
| Time | Latitude | Longitude | Altitude | Speed | Heading |
|---|---|---|---|---|---|
| 2026-04-15 13:53 | 52.44760 | 20.65419 | 340 ft | 0 kts | 206° |
| 2026-04-15 14:11 | 52.44764 | 20.65422 | 340 ft | 3 kts | 204° |
| 2026-04-15 14:11 | 52.44788 | 20.65431 | 340 ft | 4 kts | 170° |
| 2026-04-15 14:12 | 52.44805 | 20.65415 | 339 ft | 4 kts | 99° |
| 2026-04-15 14:12 | 52.44804 | 20.65398 | 337 ft | 1 kts | 81° |
| 2026-04-15 14:12 | 52.44804 | 20.65397 | 337 ft | 0 kts | 81° |
| 2026-04-15 14:15 | 52.44805 | 20.65402 | 337 ft | 1 kts | 81° |
| 2026-04-15 14:16 | 52.44807 | 20.65431 | 337 ft | 4 kts | 81° |
| 2026-04-15 14:16 | 52.44812 | 20.65485 | 340 ft | 7 kts | 81° |
| 2026-04-15 14:16 | 52.44825 | 20.65622 | 338 ft | 18 kts | 81° |
| 2026-04-15 14:16 | 52.44847 | 20.65871 | 340 ft | 24 kts | 81° |
| 2026-04-15 14:17 | 52.44873 | 20.66154 | 340 ft | 26 kts | 81° |
| 2026-04-15 14:17 | 52.44901 | 20.66451 | 341 ft | 27 kts | 81° |
| 2026-04-15 14:17 | 52.44932 | 20.66767 | 341 ft | 29 kts | 81° |
| 2026-04-15 14:17 | 52.44960 | 20.67043 | 341 ft | 11 kts | 66° |
| 2026-04-15 14:18 | 52.45030 | 20.67075 | 341 ft | 12 kts | 348° |
| 2026-04-15 14:18 | 52.45116 | 20.67050 | 338 ft | 13 kts | 351° |
| 2026-04-15 14:18 | 52.45214 | 20.67017 | 340 ft | 15 kts | 340° |
| 2026-04-15 14:18 | 52.45282 | 20.66972 | 350 ft | 4 kts | 314° |
| 2026-04-15 14:19 | 52.45285 | 20.66921 | 338 ft | 0 kts | 259° |
| 2026-04-15 14:19 | 52.45285 | 20.66918 | 339 ft | 0 kts | 259° |
| 2026-04-15 14:19 | 52.45283 | 20.66907 | 341 ft | 3 kts | 261° |
| 2026-04-15 14:20 | 52.45273 | 20.66807 | 340 ft | 21 kts | 261° |
| 2026-04-15 14:20 | 52.45209 | 20.66103 | 338 ft | 102 kts | 261° |
| 2026-04-15 14:20 | 52.45064 | 20.64566 | 380 ft | 165 kts | 262° |
| 2026-04-15 14:20 | 52.44923 | 20.62557 | 1012 ft | 180 kts | 268° |
| 2026-04-15 14:21 | 52.44882 | 20.60611 | 2277 ft | 164 kts | 265° |
| 2026-04-15 14:21 | 52.44710 | 20.58616 | 2886 ft | 195 kts | 263° |
| 2026-04-15 14:21 | 52.44678 | 20.58193 | 2926 ft | 202 kts | 264° |
| 2026-04-15 14:22 | 52.44520 | 20.56159 | 3613 ft | 212 kts | 265° |
| 2026-04-15 14:22 | 52.44874 | 20.53740 | 4221 ft | 235 kts | 303° |
| 2026-04-15 14:22 | 52.46221 | 20.52223 | 5083 ft | 242 kts | 345° |
| 2026-04-15 14:22 | 52.47898 | 20.52012 | 5451 ft | 250 kts | 357° |
| 2026-04-15 14:23 | 52.49648 | 20.51902 | 6264 ft | 253 kts | 349° |
| 2026-04-15 14:23 | 52.51292 | 20.51000 | 7266 ft | 249 kts | 328° |
| 2026-04-15 14:23 | 52.52440 | 20.49865 | 7943 ft | 252 kts | 326° |
| 2026-04-15 14:24 | 52.53324 | 20.48994 | 8520 ft | 251 kts | 326° |
| 2026-04-15 14:25 | 52.54823 | 20.47547 | 9455 ft | 255 kts | 326° |
| 2026-04-15 14:25 | 52.56396 | 20.46048 | 10195 ft | 263 kts | 327° |
| 2026-04-15 14:25 | 52.58025 | 20.44508 | 10762 ft | 279 kts | 327° |
| 2026-04-15 14:25 | 52.59768 | 20.42871 | 11154 ft | 299 kts | 328° |
| 2026-04-15 14:26 | 52.61630 | 20.41126 | 11497 ft | 318 kts | 328° |
| 2026-04-15 14:26 | 52.63608 | 20.39270 | 11852 ft | 335 kts | 328° |
| 2026-04-15 14:26 | 52.65665 | 20.37338 | 12438 ft | 342 kts | 328° |
| 2026-04-15 14:26 | 52.67735 | 20.35388 | 13221 ft | 345 kts | 328° |
| 2026-04-15 14:27 | 52.69821 | 20.33389 | 13944 ft | 348 kts | 324° |
| 2026-04-15 14:27 | 52.71582 | 20.30674 | 14625 ft | 347 kts | 309° |
| 2026-04-15 14:27 | 52.73213 | 20.27700 | 15257 ft | 352 kts | 310° |
| 2026-04-15 14:27 | 52.74860 | 20.24699 | 15939 ft | 354 kts | 310° |
| 2026-04-15 14:28 | 52.76494 | 20.21699 | 16589 ft | 357 kts | 310° |
| 2026-04-15 14:28 | 52.78162 | 20.18628 | 17240 ft | 360 kts | 309° |
| 2026-04-15 14:28 | 52.79841 | 20.15529 | 17861 ft | 363 kts | 309° |
| 2026-04-15 14:28 | 52.81496 | 20.12359 | 18473 ft | 366 kts | 307° |
| 2026-04-15 14:29 | 52.83132 | 20.09107 | 19009 ft | 369 kts | 307° |
| 2026-04-15 14:29 | 52.84781 | 20.05841 | 19560 ft | 370 kts | 308° |
| 2026-04-15 14:29 | 52.86441 | 20.02554 | 20097 ft | 373 kts | 308° |
| 2026-04-15 14:29 | 52.88107 | 19.99252 | 20627 ft | 375 kts | 308° |
| 2026-04-15 14:30 | 52.89781 | 19.95931 | 21149 ft | 377 kts | 307° |
| 2026-04-15 14:30 | 52.91465 | 19.92587 | 21674 ft | 379 kts | 307° |
| 2026-04-15 14:30 | 52.93158 | 19.89221 | 22203 ft | 381 kts | 307° |
| 2026-04-15 14:30 | 52.94835 | 19.85881 | 22713 ft | 383 kts | 307° |
| 2026-04-15 14:31 | 52.96549 | 19.82462 | 23231 ft | 386 kts | 307° |
| 2026-04-15 14:31 | 52.98270 | 19.79026 | 23742 ft | 388 kts | 307° |
| 2026-04-15 14:31 | 53.00000 | 19.75568 | 24177 ft | 391 kts | 307° |
| 2026-04-15 14:31 | 53.01739 | 19.72086 | 24618 ft | 392 kts | 307° |
| 2026-04-15 14:32 | 53.03484 | 19.68586 | 25052 ft | 394 kts | 307° |
| 2026-04-15 14:32 | 53.05238 | 19.65066 | 25506 ft | 396 kts | 307° |
| 2026-04-15 14:32 | 53.07117 | 19.61695 | 25963 ft | 399 kts | 312° |
| 2026-04-15 14:32 | 53.09072 | 19.58420 | 26385 ft | 400 kts | 312° |
| 2026-04-15 14:33 | 53.11025 | 19.55103 | 26804 ft | 402 kts | 311° |
| 2026-04-15 14:33 | 53.12978 | 19.51757 | 27219 ft | 404 kts | 311° |
| 2026-04-15 14:33 | 53.14936 | 19.48392 | 27645 ft | 406 kts | 311° |
| 2026-04-15 14:33 | 53.16239 | 19.46146 | 27882 ft | 408 kts | 311° |
| 2026-04-15 14:34 | 53.18216 | 19.42733 | 28256 ft | 410 kts | 311° |
| 2026-04-15 14:34 | 53.20199 | 19.39306 | 28657 ft | 412 kts | 311° |
| 2026-04-15 14:34 | 53.22191 | 19.35848 | 29031 ft | 413 kts | 310° |
| 2026-04-15 14:34 | 53.24080 | 19.32226 | 29392 ft | 414 kts | 308° |
| 2026-04-15 14:35 | 53.25974 | 19.28580 | 29766 ft | 416 kts | 308° |
| 2026-04-15 14:35 | 53.27875 | 19.24936 | 30224 ft | 416 kts | 308° |
| 2026-04-15 14:35 | 53.29780 | 19.21289 | 30551 ft | 417 kts | 309° |
| 2026-04-15 14:35 | 53.31691 | 19.17627 | 30852 ft | 418 kts | 309° |
| 2026-04-15 14:36 | 53.33603 | 19.13959 | 31241 ft | 418 kts | 309° |
| 2026-04-15 14:36 | 53.35511 | 19.10292 | 31640 ft | 417 kts | 309° |
| 2026-04-15 14:36 | 53.37417 | 19.06624 | 32003 ft | 416 kts | 309° |
| 2026-04-15 14:36 | 53.39291 | 19.03011 | 32374 ft | 416 kts | 309° |
| 2026-04-15 14:37 | 53.41210 | 18.99306 | 32750 ft | 415 kts | 309° |
| 2026-04-15 14:37 | 53.43077 | 18.95698 | 33113 ft | 415 kts | 310° |
| 2026-04-15 14:37 | 53.44965 | 18.92042 | 33474 ft | 414 kts | 310° |
| 2026-04-15 14:37 | 53.46847 | 18.88393 | 33850 ft | 413 kts | 310° |
| 2026-04-15 14:38 | 53.48740 | 18.84719 | 34367 ft | 408 kts | 310° |
| 2026-04-15 14:38 | 53.50556 | 18.81075 | 34682 ft | 407 kts | 304° |
| 2026-04-15 14:38 | 53.51822 | 18.76841 | 34929 ft | 409 kts | 289° |
| 2026-04-15 14:38 | 53.52389 | 18.72130 | 35143 ft | 413 kts | 281° |
| 2026-04-15 14:39 | 53.52800 | 18.67404 | 35309 ft | 415 kts | 281° |
| 2026-04-15 14:39 | 53.53182 | 18.62591 | 35547 ft | 416 kts | 280° |
| 2026-04-15 14:39 | 53.53544 | 18.57759 | 35775 ft | 417 kts | 279° |
| 2026-04-15 14:39 | 53.53890 | 18.52920 | 36001 ft | 418 kts | 279° |
| 2026-04-15 14:40 | 53.54229 | 18.48074 | 36228 ft | 418 kts | 279° |
| 2026-04-15 14:40 | 53.54565 | 18.43207 | 36450 ft | 419 kts | 279° |
| 2026-04-15 14:40 | 53.54900 | 18.38338 | 36675 ft | 419 kts | 279° |
| 2026-04-15 14:40 | 53.55231 | 18.33477 | 36978 ft | 417 kts | 279° |
| 2026-04-15 14:41 | 53.55560 | 18.28626 | 37181 ft | 418 kts | 279° |
| 2026-04-15 14:41 | 53.55888 | 18.23754 | 37382 ft | 418 kts | 279° |
| 2026-04-15 14:41 | 53.56214 | 18.18878 | 37569 ft | 419 kts | 278° |
| 2026-04-15 14:41 | 53.56538 | 18.14009 | 37750 ft | 420 kts | 278° |
| 2026-04-15 14:42 | 53.56860 | 18.09127 | 37934 ft | 420 kts | 278° |
| 2026-04-15 14:42 | 53.57178 | 18.04288 | 38102 ft | 421 kts | 278° |
| 2026-04-15 14:42 | 53.57499 | 17.99388 | 38224 ft | 422 kts | 278° |
| 2026-04-15 14:43 | 53.58139 | 17.89505 | 38222 ft | 427 kts | 278° |
| 2026-04-15 14:43 | 53.58778 | 17.79514 | 38232 ft | 431 kts | 278° |
| 2026-04-15 14:44 | 53.59415 | 17.69417 | 38236 ft | 435 kts | 278° |
| 2026-04-15 14:44 | 53.60048 | 17.59267 | 38236 ft | 437 kts | 278° |
| 2026-04-15 14:45 | 53.60673 | 17.49070 | 38236 ft | 439 kts | 278° |
| 2026-04-15 14:45 | 53.61294 | 17.38824 | 38238 ft | 440 kts | 277° |
| 2026-04-15 14:46 | 53.61906 | 17.28560 | 38234 ft | 441 kts | 278° |
| 2026-04-15 14:46 | 53.62511 | 17.18276 | 38239 ft | 442 kts | 278° |
| 2026-04-15 14:47 | 53.63107 | 17.07977 | 38242 ft | 442 kts | 277° |
| 2026-04-15 14:47 | 53.63697 | 16.97667 | 38226 ft | 439 kts | 277° |
| 2026-04-15 14:48 | 53.64269 | 16.87451 | 38232 ft | 433 kts | 277° |
| 2026-04-15 14:48 | 53.64817 | 16.77534 | 38238 ft | 417 kts | 277° |
| 2026-04-15 14:49 | 53.65337 | 16.67980 | 38234 ft | 402 kts | 278° |
| 2026-04-15 14:49 | 53.65832 | 16.58756 | 38232 ft | 388 kts | 278° |
| 2026-04-15 14:50 | 53.66302 | 16.49865 | 38230 ft | 373 kts | 278° |
| 2026-04-15 14:50 | 53.66753 | 16.41214 | 38242 ft | 373 kts | 278° |
| 2026-04-15 14:51 | 53.67202 | 16.32480 | 38244 ft | 374 kts | 277° |
| 2026-04-15 14:51 | 53.67646 | 16.23719 | 38239 ft | 375 kts | 278° |
| 2026-04-15 14:52 | 53.68085 | 16.14943 | 38242 ft | 375 kts | 278° |
| 2026-04-15 14:52 | 53.68516 | 16.06179 | 38242 ft | 375 kts | 278° |
| 2026-04-15 14:53 | 53.68941 | 15.97409 | 38242 ft | 375 kts | 277° |
| 2026-04-15 14:53 | 53.69361 | 15.88646 | 38215 ft | 374 kts | 278° |
| 2026-04-15 14:54 | 53.69771 | 15.79920 | 38237 ft | 372 kts | 278° |
| 2026-04-15 14:54 | 53.70177 | 15.71212 | 38236 ft | 372 kts | 278° |
| 2026-04-15 14:55 | 53.70573 | 15.62548 | 38239 ft | 372 kts | 278° |
| 2026-04-15 14:55 | 53.70966 | 15.53847 | 38242 ft | 372 kts | 278° |
| 2026-04-15 14:56 | 53.71352 | 15.45142 | 38240 ft | 372 kts | 278° |
| 2026-04-15 14:56 | 53.71732 | 15.36429 | 38239 ft | 372 kts | 278° |
| 2026-04-15 14:57 | 53.72107 | 15.27706 | 38242 ft | 372 kts | 278° |
| 2026-04-15 14:57 | 53.72471 | 15.19050 | 38240 ft | 372 kts | 278° |
| 2026-04-15 14:58 | 53.72832 | 15.10333 | 38237 ft | 372 kts | 277° |
| 2026-04-15 14:58 | 53.73187 | 15.01629 | 38237 ft | 372 kts | 277° |
| 2026-04-15 14:59 | 53.73535 | 14.92920 | 38240 ft | 372 kts | 277° |
| 2026-04-15 14:59 | 53.73877 | 14.84206 | 38238 ft | 371 kts | 277° |
| 2026-04-15 15:00 | 53.74212 | 14.75503 | 38238 ft | 371 kts | 277° |
| 2026-04-15 15:00 | 53.74541 | 14.66796 | 38234 ft | 372 kts | 277° |
| 2026-04-15 15:01 | 53.74864 | 14.58067 | 38237 ft | 372 kts | 277° |
| 2026-04-15 15:01 | 53.75182 | 14.49329 | 38236 ft | 372 kts | 277° |
| 2026-04-15 15:02 | 53.75491 | 14.40666 | 38239 ft | 372 kts | 277° |
| 2026-04-15 15:02 | 53.75797 | 14.31945 | 38236 ft | 372 kts | 277° |
| 2026-04-15 15:03 | 53.75938 | 14.23194 | 38245 ft | 373 kts | 275° |
| 2026-04-15 15:03 | 53.75999 | 14.14431 | 38235 ft | 372 kts | 275° |
| 2026-04-15 15:04 | 53.76065 | 14.05693 | 38230 ft | 372 kts | 275° |
| 2026-04-15 15:04 | 53.76125 | 13.96940 | 38230 ft | 372 kts | 275° |
| 2026-04-15 15:05 | 53.76179 | 13.88194 | 38229 ft | 372 kts | 275° |
| 2026-04-15 15:05 | 53.76224 | 13.79449 | 38229 ft | 372 kts | 275° |
| 2026-04-15 15:06 | 53.76258 | 13.66395 | 38201 ft | 372 kts | 275° |
| 2026-04-15 15:06 | 53.76270 | 13.57652 | 38233 ft | 372 kts | 274° |
| 2026-04-15 15:07 | 53.76209 | 13.48911 | 38227 ft | 372 kts | 274° |
| 2026-04-15 15:07 | 53.76119 | 13.40155 | 38220 ft | 372 kts | 274° |
| 2026-04-15 15:08 | 53.76026 | 13.31465 | 38234 ft | 372 kts | 274° |
| 2026-04-15 15:08 | 53.75927 | 13.22723 | 38214 ft | 372 kts | 274° |
| 2026-04-15 15:09 | 53.75820 | 13.13964 | 38197 ft | 373 kts | 274° |
| 2026-04-15 15:09 | 53.75708 | 13.05190 | 38224 ft | 374 kts | 274° |
| 2026-04-15 15:10 | 53.75588 | 12.96378 | 38224 ft | 375 kts | 274° |
| 2026-04-15 15:10 | 53.75463 | 12.87625 | 38223 ft | 375 kts | 274° |
| 2026-04-15 15:11 | 53.75335 | 12.78818 | 38220 ft | 375 kts | 274° |
| 2026-04-15 15:11 | 53.75215 | 12.70006 | 38217 ft | 375 kts | 274° |
| 2026-04-15 15:12 | 53.75096 | 12.61205 | 38218 ft | 375 kts | 274° |
| 2026-04-15 15:12 | 53.74969 | 12.52391 | 38218 ft | 375 kts | 274° |
| 2026-04-15 15:13 | 53.74811 | 12.43568 | 38214 ft | 376 kts | 273° |
| 2026-04-15 15:13 | 53.74627 | 12.34736 | 38213 ft | 376 kts | 273° |
| 2026-04-15 15:14 | 53.74438 | 12.25918 | 38211 ft | 376 kts | 273° |
| 2026-04-15 15:14 | 53.74243 | 12.17083 | 38212 ft | 376 kts | 273° |
| 2026-04-15 15:15 | 53.74050 | 12.08265 | 38208 ft | 376 kts | 273° |
| 2026-04-15 15:15 | 53.73855 | 11.99517 | 38209 ft | 375 kts | 273° |
| 2026-04-15 15:16 | 53.73652 | 11.90698 | 38213 ft | 375 kts | 272° |
| 2026-04-15 15:16 | 53.73449 | 11.81888 | 38214 ft | 375 kts | 273° |
| 2026-04-15 15:17 | 53.73249 | 11.73085 | 38204 ft | 375 kts | 272° |
| 2026-04-15 15:17 | 53.73042 | 11.64284 | 38211 ft | 375 kts | 272° |
| 2026-04-15 15:18 | 53.72828 | 11.55473 | 38204 ft | 375 kts | 272° |
| 2026-04-15 15:18 | 53.72606 | 11.46678 | 38200 ft | 374 kts | 272° |
| 2026-04-15 15:19 | 53.72368 | 11.37897 | 38202 ft | 374 kts | 272° |
| 2026-04-15 15:19 | 53.72125 | 11.29175 | 38202 ft | 374 kts | 272° |
| 2026-04-15 15:20 | 53.71875 | 11.20404 | 38187 ft | 374 kts | 272° |
| 2026-04-15 15:20 | 53.71618 | 11.11619 | 38206 ft | 375 kts | 271° |
| 2026-04-15 15:21 | 53.71354 | 11.02830 | 38206 ft | 375 kts | 271° |
| 2026-04-15 15:21 | 53.71131 | 10.95516 | 38202 ft | 374 kts | 271° |
| 2026-04-15 15:22 | 53.70854 | 10.86766 | 38205 ft | 373 kts | 271° |
| 2026-04-15 15:22 | 53.70572 | 10.78031 | 38212 ft | 373 kts | 271° |
| 2026-04-15 15:23 | 53.70284 | 10.69290 | 38208 ft | 373 kts | 271° |
| 2026-04-15 15:23 | 53.69990 | 10.60555 | 38208 ft | 373 kts | 271° |
| 2026-04-15 15:24 | 53.69689 | 10.51814 | 38205 ft | 373 kts | 271° |
| 2026-04-15 15:24 | 53.69381 | 10.43071 | 38192 ft | 373 kts | 270° |
| 2026-04-15 15:25 | 53.69070 | 10.34419 | 38196 ft | 371 kts | 270° |
| 2026-04-15 15:25 | 53.68753 | 10.25741 | 38186 ft | 371 kts | 270° |
| 2026-04-15 15:26 | 53.68364 | 10.17059 | 38183 ft | 371 kts | 269° |
| 2026-04-15 15:26 | 53.67922 | 10.08377 | 38183 ft | 371 kts | 269° |
| 2026-04-15 15:27 | 53.67478 | 9.99696 | 38188 ft | 371 kts | 269° |
| 2026-04-15 15:27 | 53.67030 | 9.91022 | 38178 ft | 371 kts | 269° |
| 2026-04-15 15:28 | 53.66574 | 9.82346 | 38184 ft | 371 kts | 269° |
| 2026-04-15 15:28 | 53.66113 | 9.73676 | 38184 ft | 371 kts | 268° |
| 2026-04-15 15:29 | 53.65646 | 9.65008 | 38185 ft | 371 kts | 268° |
| 2026-04-15 15:29 | 53.65153 | 9.56329 | 38185 ft | 371 kts | 268° |
| 2026-04-15 15:30 | 53.64622 | 9.47733 | 38184 ft | 371 kts | 268° |
| 2026-04-15 15:30 | 53.64084 | 9.39070 | 38187 ft | 372 kts | 268° |
| 2026-04-15 15:31 | 53.63542 | 9.30428 | 38181 ft | 368 kts | 267° |
| 2026-04-15 15:31 | 53.62998 | 9.21863 | 38182 ft | 367 kts | 266° |
| 2026-04-15 15:32 | 53.62448 | 9.13288 | 38181 ft | 368 kts | 266° |
| 2026-04-15 15:32 | 53.61892 | 9.04727 | 38184 ft | 368 kts | 266° |
| 2026-04-15 15:33 | 53.61331 | 8.96170 | 38183 ft | 368 kts | 266° |
| 2026-04-15 15:33 | 53.60766 | 8.87670 | 38181 ft | 367 kts | 266° |
| 2026-04-15 15:34 | 53.60192 | 8.79114 | 38183 ft | 367 kts | 265° |
| 2026-04-15 15:34 | 53.59614 | 8.70593 | 38185 ft | 366 kts | 265° |
| 2026-04-15 15:35 | 53.59030 | 8.62079 | 38181 ft | 366 kts | 265° |
| 2026-04-15 15:35 | 53.58440 | 8.53566 | 38194 ft | 366 kts | 265° |
| 2026-04-15 15:36 | 53.57843 | 8.45044 | 38164 ft | 366 kts | 265° |
| 2026-04-15 15:36 | 53.57243 | 8.36557 | 38173 ft | 366 kts | 265° |
| 2026-04-15 15:37 | 53.56636 | 8.28058 | 38180 ft | 365 kts | 264° |
| 2026-04-15 15:37 | 53.56024 | 8.19592 | 38136 ft | 363 kts | 264° |
| 2026-04-15 15:38 | 53.55409 | 8.11167 | 38173 ft | 363 kts | 264° |
| 2026-04-15 15:38 | 53.54788 | 8.02736 | 38158 ft | 364 kts | 264° |
| 2026-04-15 15:39 | 53.54163 | 7.94334 | 38158 ft | 364 kts | 264° |
| 2026-04-15 15:39 | 53.53530 | 7.85901 | 38158 ft | 364 kts | 264° |
| 2026-04-15 15:40 | 53.52890 | 7.77463 | 38161 ft | 363 kts | 264° |
| 2026-04-15 15:40 | 53.52245 | 7.69045 | 38156 ft | 363 kts | 263° |
| 2026-04-15 15:41 | 53.51595 | 7.60639 | 38150 ft | 363 kts | 263° |
| 2026-04-15 15:41 | 53.50939 | 7.52234 | 38159 ft | 363 kts | 263° |
| 2026-04-15 15:42 | 53.50277 | 7.43826 | 38148 ft | 363 kts | 262° |
| 2026-04-15 15:42 | 53.49609 | 7.35416 | 38165 ft | 364 kts | 262° |
| 2026-04-15 15:43 | 53.48938 | 7.27054 | 38153 ft | 363 kts | 262° |
| 2026-04-15 15:43 | 53.48258 | 7.18643 | 38148 ft | 364 kts | 261° |
| 2026-04-15 15:44 | 53.47569 | 7.10208 | 38140 ft | 364 kts | 261° |
| 2026-04-15 15:44 | 53.46875 | 7.01779 | 38154 ft | 365 kts | 261° |
| 2026-04-15 15:45 | 53.46175 | 6.93364 | 38145 ft | 364 kts | 261° |
| 2026-04-15 15:45 | 53.45469 | 6.84941 | 38148 ft | 364 kts | 261° |
| 2026-04-15 15:46 | 53.44757 | 6.76521 | 38145 ft | 364 kts | 261° |
| 2026-04-15 15:46 | 53.44038 | 6.68091 | 38157 ft | 365 kts | 260° |
| 2026-04-15 15:47 | 53.43319 | 6.59731 | 38141 ft | 364 kts | 260° |
| 2026-04-15 15:47 | 53.42589 | 6.51319 | 38143 ft | 365 kts | 260° |
| 2026-04-15 15:48 | 53.41852 | 6.42905 | 38140 ft | 364 kts | 259° |
| 2026-04-15 15:48 | 53.41111 | 6.34498 | 38135 ft | 364 kts | 259° |
| 2026-04-15 15:49 | 53.40364 | 6.26102 | 38138 ft | 364 kts | 259° |
| 2026-04-15 15:49 | 53.39611 | 6.17706 | 38148 ft | 364 kts | 258° |
| 2026-04-15 15:50 | 53.38851 | 6.09303 | 38128 ft | 364 kts | 258° |
| 2026-04-15 15:50 | 53.38085 | 6.00903 | 38133 ft | 367 kts | 258° |
| 2026-04-15 15:51 | 53.37302 | 5.92388 | 38129 ft | 373 kts | 258° |
| 2026-04-15 15:51 | 53.36504 | 5.83772 | 38133 ft | 380 kts | 258° |
| 2026-04-15 15:52 | 53.35681 | 5.74956 | 38127 ft | 387 kts | 258° |
| 2026-04-15 15:52 | 53.34835 | 5.65979 | 38128 ft | 394 kts | 258° |
| 2026-04-15 15:53 | 53.33966 | 5.56831 | 38122 ft | 401 kts | 257° |
| 2026-04-15 15:53 | 53.33074 | 5.47519 | 38117 ft | 408 kts | 257° |
| 2026-04-15 15:54 | 53.32160 | 5.38067 | 38110 ft | 413 kts | 257° |
| 2026-04-15 15:54 | 53.31241 | 5.28634 | 38102 ft | 413 kts | 257° |
| 2026-04-15 15:55 | 53.30310 | 5.19161 | 38103 ft | 413 kts | 257° |
| 2026-04-15 15:55 | 53.29371 | 5.09693 | 38119 ft | 413 kts | 256° |
| 2026-04-15 15:56 | 53.28423 | 5.00208 | 38105 ft | 413 kts | 256° |
| 2026-04-15 15:56 | 53.27468 | 4.90734 | 38101 ft | 413 kts | 256° |
| 2026-04-15 15:57 | 53.26506 | 4.81265 | 38103 ft | 413 kts | 256° |
| 2026-04-15 15:57 | 53.25535 | 4.71791 | 38102 ft | 413 kts | 256° |
| 2026-04-15 15:58 | 53.24562 | 4.62380 | 38104 ft | 413 kts | 256° |
| 2026-04-15 15:58 | 53.23578 | 4.52929 | 38104 ft | 413 kts | 256° |
| 2026-04-15 15:59 | 53.22586 | 4.43480 | 38095 ft | 413 kts | 256° |
| 2026-04-15 15:59 | 53.21587 | 4.34042 | 38097 ft | 413 kts | 256° |
| 2026-04-15 16:00 | 53.20579 | 4.24595 | 38098 ft | 413 kts | 256° |
| 2026-04-15 16:00 | 53.19566 | 4.15165 | 38096 ft | 413 kts | 256° |
| 2026-04-15 16:01 | 53.18551 | 4.05797 | 38112 ft | 413 kts | 255° |
| 2026-04-15 16:01 | 53.17523 | 3.96383 | 38084 ft | 412 kts | 255° |
| 2026-04-15 16:02 | 53.16490 | 3.86988 | 38072 ft | 412 kts | 255° |
| 2026-04-15 16:02 | 53.15451 | 3.77587 | 38071 ft | 412 kts | 255° |
| 2026-04-15 16:03 | 53.14407 | 3.68204 | 38074 ft | 412 kts | 255° |
| 2026-04-15 16:03 | 53.13355 | 3.58823 | 38065 ft | 412 kts | 255° |
| 2026-04-15 16:04 | 53.12296 | 3.49439 | 38069 ft | 413 kts | 254° |
| 2026-04-15 16:04 | 53.11226 | 3.40032 | 38052 ft | 413 kts | 254° |
| 2026-04-15 16:05 | 53.10290 | 3.30576 | 38036 ft | 419 kts | 264° |
| 2026-04-15 16:05 | 53.10777 | 3.20885 | 38018 ft | 425 kts | 270° |
| 2026-04-15 16:06 | 53.11417 | 3.11085 | 38042 ft | 426 kts | 270° |
| 2026-04-15 16:06 | 53.12087 | 3.01295 | 38055 ft | 427 kts | 270° |
| 2026-04-15 16:07 | 53.12760 | 2.91442 | 38042 ft | 429 kts | 270° |
| 2026-04-15 16:08 | 53.13757 | 2.76629 | 38026 ft | 429 kts | 270° |
| 2026-04-15 16:08 | 53.14411 | 2.66762 | 38026 ft | 428 kts | 270° |
| 2026-04-15 16:09 | 53.15053 | 2.56949 | 38018 ft | 428 kts | 270° |
| 2026-04-15 16:09 | 53.15691 | 2.47060 | 38026 ft | 430 kts | 270° |
| 2026-04-15 16:10 | 53.16322 | 2.37158 | 38009 ft | 430 kts | 270° |
| 2026-04-15 16:10 | 53.16841 | 2.28910 | 38003 ft | 430 kts | 270° |
| 2026-04-15 16:11 | 53.17458 | 2.18998 | 37992 ft | 430 kts | 270° |
| 2026-04-15 16:11 | 53.18066 | 2.09079 | 37992 ft | 430 kts | 270° |
| 2026-04-15 16:12 | 53.18666 | 1.99151 | 37997 ft | 431 kts | 269° |
| 2026-04-15 16:12 | 53.19258 | 1.89215 | 37982 ft | 431 kts | 269° |
| 2026-04-15 16:13 | 53.19844 | 1.79248 | 37966 ft | 431 kts | 269° |
| 2026-04-15 16:13 | 53.20420 | 1.69303 | 37966 ft | 431 kts | 269° |
| 2026-04-15 16:14 | 53.20988 | 1.59349 | 37955 ft | 431 kts | 269° |
| 2026-04-15 16:14 | 53.21544 | 1.49462 | 37982 ft | 432 kts | 269° |
| 2026-04-15 16:15 | 53.22097 | 1.39470 | 37949 ft | 433 kts | 269° |
| 2026-04-15 16:15 | 53.22644 | 1.29450 | 37946 ft | 433 kts | 269° |
| 2026-04-15 16:16 | 53.23181 | 1.19448 | 37939 ft | 433 kts | 269° |
| 2026-04-15 16:16 | 53.23710 | 1.09433 | 37939 ft | 433 kts | 268° |
| 2026-04-15 16:17 | 53.24230 | 0.99412 | 37967 ft | 434 kts | 268° |
| 2026-04-15 16:17 | 53.24747 | 0.89307 | 37936 ft | 437 kts | 268° |
| 2026-04-15 16:18 | 53.25252 | 0.79250 | 37926 ft | 438 kts | 268° |
| 2026-04-15 16:18 | 53.25755 | 0.69088 | 37923 ft | 439 kts | 268° |
| 2026-04-15 16:19 | 53.26248 | 0.58931 | 37920 ft | 439 kts | 268° |
| 2026-04-15 16:19 | 53.26736 | 0.48702 | 37960 ft | 439 kts | 268° |
| 2026-04-15 16:20 | 53.27209 | 0.38589 | 37919 ft | 440 kts | 268° |
| 2026-04-15 16:20 | 53.27680 | 0.28401 | 37507 ft | 438 kts | 267° |
| 2026-04-15 16:20 | 53.27910 | 0.23313 | 36688 ft | 440 kts | 266° |
| 2026-04-15 16:21 | 53.28142 | 0.18197 | 35951 ft | 441 kts | 266° |
| 2026-04-15 16:21 | 53.28369 | 0.13096 | 35256 ft | 441 kts | 265° |
| 2026-04-15 16:21 | 53.28599 | 0.07974 | 34539 ft | 443 kts | 265° |
| 2026-04-15 16:21 | 53.29155 | 0.02825 | 33682 ft | 463 kts | 278° |
| 2026-04-15 16:22 | 53.30465 | -0.02209 | 32742 ft | 479 kts | 287° |
| 2026-04-15 16:22 | 53.31935 | -0.07213 | 31958 ft | 478 kts | 286° |
| 2026-04-15 16:22 | 53.33380 | -0.12215 | 31368 ft | 474 kts | 286° |
| 2026-04-15 16:22 | 53.34804 | -0.17152 | 30940 ft | 468 kts | 286° |
| 2026-04-15 16:23 | 53.36160 | -0.22059 | 30392 ft | 461 kts | 282° |
| 2026-04-15 16:23 | 53.37506 | -0.26965 | 29927 ft | 470 kts | 294° |
| 2026-04-15 16:23 | 53.39684 | -0.31108 | 29655 ft | 481 kts | 315° |
| 2026-04-15 16:23 | 53.42547 | -0.33992 | 29471 ft | 479 kts | 330° |
| 2026-04-15 16:24 | 53.45734 | -0.35711 | 28807 ft | 487 kts | 350° |
| 2026-04-15 16:24 | 53.49114 | -0.35605 | 28747 ft | 490 kts | 14° |
| 2026-04-15 16:24 | 53.52250 | -0.33683 | 28864 ft | 488 kts | 35° |
| 2026-04-15 16:24 | 53.54870 | -0.30178 | 28875 ft | 477 kts | 57° |
| 2026-04-15 16:25 | 53.56597 | -0.25576 | 28885 ft | 456 kts | 78° |
| 2026-04-15 16:25 | 53.57250 | -0.20534 | 28890 ft | 431 kts | 99° |
| 2026-04-15 16:25 | 53.56869 | -0.15695 | 28910 ft | 410 kts | 116° |
| 2026-04-15 16:25 | 53.55826 | -0.11363 | 28646 ft | 389 kts | 130° |
| 2026-04-15 16:26 | 53.54192 | -0.07887 | 27873 ft | 373 kts | 145° |
| 2026-04-15 16:26 | 53.52129 | -0.05372 | 27208 ft | 362 kts | 156° |
| 2026-04-15 16:26 | 53.49859 | -0.03693 | 26774 ft | 350 kts | 167° |
| 2026-04-15 16:26 | 53.47508 | -0.02917 | 26361 ft | 340 kts | 178° |
| 2026-04-15 16:27 | 53.45171 | -0.03065 | 25961 ft | 335 kts | 188° |
| 2026-04-15 16:27 | 53.42923 | -0.04071 | 25518 ft | 335 kts | 199° |
| 2026-04-15 16:27 | 53.40860 | -0.05879 | 25072 ft | 337 kts | 210° |
| 2026-04-15 16:27 | 53.39070 | -0.08439 | 24658 ft | 340 kts | 221° |
| 2026-04-15 16:28 | 53.37646 | -0.11648 | 24220 ft | 347 kts | 232° |
| 2026-04-15 16:28 | 53.36629 | -0.15397 | 23783 ft | 361 kts | 244° |
| 2026-04-15 16:28 | 53.36114 | -0.19539 | 23275 ft | 377 kts | 257° |
| 2026-04-15 16:28 | 53.36084 | -0.23972 | 22705 ft | 380 kts | 261° |
| 2026-04-15 16:29 | 53.36084 | -0.28386 | 22285 ft | 376 kts | 262° |
| 2026-04-15 16:29 | 53.36108 | -0.32741 | 21869 ft | 372 kts | 262° |
| 2026-04-15 16:29 | 53.36127 | -0.37057 | 21423 ft | 369 kts | 262° |
| 2026-04-15 16:29 | 53.36144 | -0.41334 | 20983 ft | 366 kts | 262° |
| 2026-04-15 16:30 | 53.36158 | -0.45582 | 20551 ft | 363 kts | 262° |
| 2026-04-15 16:30 | 53.36169 | -0.49796 | 20122 ft | 361 kts | 262° |
| 2026-04-15 16:30 | 53.36174 | -0.53988 | 19706 ft | 359 kts | 262° |
| 2026-04-15 16:30 | 53.36176 | -0.58166 | 19288 ft | 358 kts | 262° |
| 2026-04-15 16:31 | 53.36176 | -0.62325 | 18868 ft | 357 kts | 263° |
| 2026-04-15 16:31 | 53.36175 | -0.66479 | 18455 ft | 355 kts | 263° |
| 2026-04-15 16:31 | 53.36174 | -0.70602 | 18027 ft | 353 kts | 263° |
| 2026-04-15 16:31 | 53.36165 | -0.74701 | 17593 ft | 351 kts | 263° |
| 2026-04-15 16:32 | 53.36162 | -0.78764 | 17183 ft | 348 kts | 263° |
| 2026-04-15 16:32 | 53.36159 | -0.82799 | 16788 ft | 344 kts | 263° |
| 2026-04-15 16:32 | 53.36153 | -0.86778 | 16405 ft | 340 kts | 263° |
| 2026-04-15 16:32 | 53.36146 | -0.90724 | 16020 ft | 337 kts | 263° |
| 2026-04-15 16:33 | 53.36137 | -0.94627 | 15641 ft | 334 kts | 263° |
| 2026-04-15 16:33 | 53.36127 | -0.98494 | 15272 ft | 331 kts | 263° |
| 2026-04-15 16:33 | 53.36117 | -1.02325 | 14908 ft | 328 kts | 263° |
| 2026-04-15 16:33 | 53.36108 | -1.06125 | 14559 ft | 325 kts | 263° |
| 2026-04-15 16:34 | 53.36091 | -1.09903 | 14174 ft | 323 kts | 262° |
| 2026-04-15 16:34 | 53.36071 | -1.13655 | 13804 ft | 321 kts | 262° |
| 2026-04-15 16:34 | 53.36052 | -1.17376 | 13408 ft | 319 kts | 263° |
| 2026-04-15 16:34 | 53.36035 | -1.21079 | 13017 ft | 316 kts | 263° |
| 2026-04-15 16:35 | 53.36019 | -1.24733 | 12658 ft | 312 kts | 263° |
| 2026-04-15 16:35 | 53.36002 | -1.28347 | 12307 ft | 309 kts | 263° |
| 2026-04-15 16:35 | 53.35981 | -1.31934 | 11954 ft | 308 kts | 263° |
| 2026-04-15 16:35 | 53.35947 | -1.35539 | 11607 ft | 312 kts | 263° |
| 2026-04-15 16:36 | 53.35909 | -1.39191 | 11243 ft | 314 kts | 263° |
| 2026-04-15 16:36 | 53.35877 | -1.42840 | 10901 ft | 313 kts | 263° |
| 2026-04-15 16:36 | 53.35857 | -1.46402 | 10720 ft | 305 kts | 263° |
| 2026-04-15 16:36 | 53.35847 | -1.49894 | 10578 ft | 295 kts | 263° |
| 2026-04-15 16:37 | 53.35837 | -1.53267 | 10444 ft | 285 kts | 263° |
| 2026-04-15 16:37 | 53.35827 | -1.56516 | 10339 ft | 275 kts | 263° |
| 2026-04-15 16:37 | 53.35816 | -1.59666 | 10190 ft | 266 kts | 263° |
| 2026-04-15 16:37 | 53.35805 | -1.62701 | 10063 ft | 256 kts | 262° |
| 2026-04-15 16:38 | 53.35792 | -1.65633 | 9934 ft | 248 kts | 262° |
| 2026-04-15 16:38 | 53.35773 | -1.68502 | 9664 ft | 245 kts | 262° |
| 2026-04-15 16:38 | 53.35748 | -1.71352 | 9362 ft | 244 kts | 262° |
| 2026-04-15 16:38 | 53.35722 | -1.74182 | 9107 ft | 242 kts | 262° |
| 2026-04-15 16:39 | 53.35691 | -1.77013 | 8824 ft | 245 kts | 262° |
| 2026-04-15 16:39 | 53.35651 | -1.79897 | 8574 ft | 250 kts | 262° |
| 2026-04-15 16:39 | 53.35612 | -1.82821 | 8266 ft | 251 kts | 262° |
| 2026-04-15 16:39 | 53.35574 | -1.85734 | 8012 ft | 250 kts | 262° |
| 2026-04-15 16:40 | 53.35537 | -1.88647 | 7784 ft | 250 kts | 262° |
| 2026-04-15 16:40 | 53.35500 | -1.91527 | 7508 ft | 251 kts | 262° |
| 2026-04-15 16:40 | 53.35463 | -1.94484 | 7212 ft | 250 kts | 262° |
| 2026-04-15 16:40 | 53.35426 | -1.97341 | 6947 ft | 248 kts | 262° |
| 2026-04-15 16:41 | 53.35389 | -2.00214 | 6654 ft | 245 kts | 262° |
| 2026-04-15 16:41 | 53.35354 | -2.03046 | 6399 ft | 240 kts | 262° |
| 2026-04-15 16:41 | 53.35320 | -2.05820 | 6187 ft | 236 kts | 263° |
| 2026-04-15 16:41 | 53.35283 | -2.08540 | 5920 ft | 233 kts | 262° |
| 2026-04-15 16:42 | 53.35245 | -2.11238 | 5653 ft | 231 kts | 262° |
| 2026-04-15 16:42 | 53.35207 | -2.13883 | 5396 ft | 228 kts | 262° |
| 2026-04-15 16:42 | 53.35170 | -2.16516 | 5149 ft | 225 kts | 262° |
| 2026-04-15 16:42 | 53.35130 | -2.19141 | 4919 ft | 228 kts | 262° |
| 2026-04-15 16:43 | 53.35087 | -2.21815 | 4670 ft | 232 kts | 262° |
| 2026-04-15 16:43 | 53.35043 | -2.24532 | 4408 ft | 234 kts | 263° |
| 2026-04-15 16:43 | 53.34999 | -2.27255 | 4211 ft | 233 kts | 262° |
| 2026-04-15 16:43 | 53.34957 | -2.29945 | 4094 ft | 228 kts | 262° |
| 2026-04-15 16:44 | 53.34918 | -2.32532 | 4013 ft | 218 kts | 262° |
| 2026-04-15 16:44 | 53.34880 | -2.35022 | 3911 ft | 210 kts | 262° |
| 2026-04-15 16:44 | 53.34844 | -2.37408 | 3841 ft | 199 kts | 262° |
| 2026-04-15 16:44 | 53.34810 | -2.39665 | 3735 ft | 190 kts | 261° |
| 2026-04-15 16:45 | 53.34775 | -2.41837 | 3590 ft | 182 kts | 261° |
| 2026-04-15 16:45 | 53.34741 | -2.43900 | 3458 ft | 179 kts | 261° |
| 2026-04-15 16:45 | 53.34704 | -2.45986 | 3369 ft | 180 kts | 261° |
| 2026-04-15 16:45 | 53.34666 | -2.48076 | 3263 ft | 179 kts | 261° |
| 2026-04-15 16:46 | 53.34627 | -2.50157 | 3142 ft | 179 kts | 261° |
| 2026-04-15 16:46 | 53.34588 | -2.52227 | 3027 ft | 178 kts | 260° |
| 2026-04-15 16:46 | 53.34549 | -2.54308 | 3006 ft | 178 kts | 261° |
| 2026-04-15 16:46 | 53.34511 | -2.56344 | 3053 ft | 173 kts | 260° |
| 2026-04-15 16:47 | 53.34472 | -2.58324 | 3038 ft | 169 kts | 262° |
| 2026-04-15 16:47 | 53.34441 | -2.60287 | 2816 ft | 168 kts | 261° |
| 2026-04-15 16:47 | 53.34388 | -2.62235 | 2582 ft | 164 kts | 260° |
| 2026-04-15 16:47 | 53.34321 | -2.64063 | 2370 ft | 150 kts | 259° |
| 2026-04-15 16:48 | 53.34249 | -2.65721 | 2167 ft | 136 kts | 258° |
| 2026-04-15 16:48 | 53.34180 | -2.67237 | 2046 ft | 129 kts | 257° |
| 2026-04-15 16:48 | 53.34111 | -2.68726 | 1863 ft | 127 kts | 257° |
| 2026-04-15 16:48 | 53.34043 | -2.70190 | 1686 ft | 126 kts | 256° |
| 2026-04-15 16:49 | 53.33975 | -2.71643 | 1514 ft | 127 kts | 256° |
| 2026-04-15 16:49 | 53.33909 | -2.73123 | 1341 ft | 127 kts | 258° |
| 2026-04-15 16:49 | 53.33838 | -2.74605 | 1145 ft | 128 kts | 258° |
| 2026-04-15 16:49 | 53.33793 | -2.76085 | 978 ft | 126 kts | 259° |
| 2026-04-15 16:50 | 53.33735 | -2.77564 | 745 ft | 128 kts | 255° |
| 2026-04-15 16:50 | 53.33634 | -2.79070 | 587 ft | 133 kts | 255° |
| 2026-04-15 16:50 | 53.33578 | -2.80666 | 398 ft | 140 kts | 263° |
| 2026-04-15 16:50 | 53.33494 | -2.82290 | 260 ft | 135 kts | 259° |
| 2026-04-15 16:51 | 53.33423 | -2.83732 | 90 ft | 114 kts | 259° |
| 2026-04-15 16:51 | 53.33373 | -2.84764 | 82 ft | 55 kts | 268° |
| 2026-04-15 16:51 | 53.33376 | -2.85322 | 83 ft | 37 kts | 284° |
| 2026-04-15 16:51 | 53.33435 | -2.85569 | 83 ft | 19 kts | 292° |
| 2026-04-15 16:52 | 53.33459 | -2.85644 | 85 ft | 3 kts | 320° |
| 2026-04-15 16:52 | 53.33465 | -2.85651 | 88 ft | 1 kts | 327° |
| 2026-04-15 16:52 | 53.33496 | -2.85636 | 88 ft | 7 kts | 50° |
| 2026-04-15 16:52 | 53.33508 | -2.85532 | 87 ft | 10 kts | 63° |
| 2026-04-15 16:53 | 53.33568 | -2.85510 | 88 ft | 10 kts | 355° |
| 2026-04-15 16:53 | 53.33639 | -2.85510 | 90 ft | 4 kts | 356° |
| 2026-04-15 16:53 | 53.33661 | -2.85513 | 91 ft | 1 kts | 356° |
| 2026-04-15 16:53 | 53.33662 | -2.85513 | 91 ft | 0 kts | 356° |